sensor_id;sensor_type;location;lat;lon;timestamp;P1;durP1;ratioP1;P2;durP2;ratioP2
74267;SDS011;62638;51.362;12.472;2023-04-25T00:00:11;7.93;;;2.23;;
74267;SDS011;62638;51.362;12.472;2023-04-25T00:02:36;5.35;;;2.15;;
74267;SDS011;62638;51.362;12.472;2023-04-25T00:05:02;4.37;;;2.13;;
74267;SDS011;62638;51.362;12.472;2023-04-25T00:07:28;4.35;;;1.48;;
74267;SDS011;62638;51.362;12.472;2023-04-25T00:09:53;6.25;;;2.15;;
74267;SDS011;62638;51.362;12.472;2023-04-25T00:12:18;5.43;;;2.13;;
74267;SDS011;62638;51.362;12.472;2023-04-25T00:14:44;4.65;;;1.60;;
74267;SDS011;62638;51.362;12.472;2023-04-25T00:17:10;4.60;;;2.13;;
74267;SDS011;62638;51.362;12.472;2023-04-25T00:19:36;6.35;;;1.95;;
74267;SDS011;62638;51.362;12.472;2023-04-25T00:22:02;3.92;;;1.50;;
74267;SDS011;62638;51.362;12.472;2023-04-25T00:24:28;2.97;;;1.73;;
74267;SDS011;62638;51.362;12.472;2023-04-25T00:26:53;2.13;;;1.43;;
74267;SDS011;62638;51.362;12.472;2023-04-25T00:29:18;4.50;;;1.90;;
74267;SDS011;62638;51.362;12.472;2023-04-25T00:31:43;3.20;;;1.53;;
74267;SDS011;62638;51.362;12.472;2023-04-25T00:34:09;3.97;;;1.77;;
74267;SDS011;62638;51.362;12.472;2023-04-25T00:36:34;3.22;;;1.75;;
74267;SDS011;62638;51.362;12.472;2023-04-25T00:38:59;3.42;;;1.63;;
74267;SDS011;62638;51.362;12.472;2023-04-25T00:41:25;4.25;;;1.75;;
74267;SDS011;62638;51.362;12.472;2023-04-25T00:43:51;3.05;;;1.52;;
74267;SDS011;62638;51.362;12.472;2023-04-25T00:46:18;4.90;;;2.05;;
74267;SDS011;62638;51.362;12.472;2023-04-25T00:48:44;6.17;;;2.07;;
74267;SDS011;62638;51.362;12.472;2023-04-25T00:51:09;4.82;;;1.85;;
74267;SDS011;62638;51.362;12.472;2023-04-25T00:53:40;2.83;;;1.55;;
74267;SDS011;62638;51.362;12.472;2023-04-25T00:56:06;2.60;;;1.40;;
74267;SDS011;62638;51.362;12.472;2023-04-25T00:58:31;4.85;;;1.60;;
74267;SDS011;62638;51.362;12.472;2023-04-25T01:00:57;4.30;;;2.20;;
74267;SDS011;62638;51.362;12.472;2023-04-25T01:03:22;2.72;;;1.27;;
74267;SDS011;62638;51.362;12.472;2023-04-25T01:05:48;3.92;;;1.67;;
74267;SDS011;62638;51.362;12.472;2023-04-25T01:08:15;4.20;;;1.48;;
74267;SDS011;62638;51.362;12.472;2023-04-25T01:10:40;3.38;;;1.73;;
74267;SDS011;62638;51.362;12.472;2023-04-25T01:13:06;4.65;;;1.90;;
74267;SDS011;62638;51.362;12.472;2023-04-25T01:15:31;3.45;;;1.77;;
74267;SDS011;62638;51.362;12.472;2023-04-25T01:17:57;3.33;;;1.77;;
74267;SDS011;62638;51.362;12.472;2023-04-25T01:20:23;5.22;;;1.98;;
74267;SDS011;62638;51.362;12.472;2023-04-25T01:22:50;4.90;;;2.33;;
74267;SDS011;62638;51.362;12.472;2023-04-25T01:25:16;3.55;;;1.67;;
74267;SDS011;62638;51.362;12.472;2023-04-25T01:27:42;5.45;;;2.33;;
74267;SDS011;62638;51.362;12.472;2023-04-25T01:30:07;3.55;;;2.30;;
74267;SDS011;62638;51.362;12.472;2023-04-25T01:32:34;6.30;;;2.38;;
74267;SDS011;62638;51.362;12.472;2023-04-25T01:35:04;3.95;;;1.95;;
74267;SDS011;62638;51.362;12.472;2023-04-25T01:37:37;6.15;;;2.50;;
74267;SDS011;62638;51.362;12.472;2023-04-25T01:40:07;5.78;;;1.95;;
74267;SDS011;62638;51.362;12.472;2023-04-25T01:42:35;3.92;;;2.63;;
74267;SDS011;62638;51.362;12.472;2023-04-25T01:45:02;4.85;;;2.10;;
74267;SDS011;62638;51.362;12.472;2023-04-25T01:47:28;4.53;;;1.90;;
74267;SDS011;62638;51.362;12.472;2023-04-25T01:49:54;4.25;;;2.15;;
74267;SDS011;62638;51.362;12.472;2023-04-25T01:52:19;3.20;;;1.83;;
74267;SDS011;62638;51.362;12.472;2023-04-25T01:54:45;3.78;;;1.83;;
74267;SDS011;62638;51.362;12.472;2023-04-25T01:57:11;4.18;;;2.15;;
74267;SDS011;62638;51.362;12.472;2023-04-25T01:59:36;4.57;;;1.75;;
74267;SDS011;62638;51.362;12.472;2023-04-25T02:02:02;6.18;;;2.03;;
74267;SDS011;62638;51.362;12.472;2023-04-25T02:04:30;2.65;;;1.20;;
74267;SDS011;62638;51.362;12.472;2023-04-25T02:06:56;3.65;;;1.67;;
74267;SDS011;62638;51.362;12.472;2023-04-25T02:09:21;3.80;;;1.65;;
74267;SDS011;62638;51.362;12.472;2023-04-25T02:11:47;4.93;;;2.25;;
74267;SDS011;62638;51.362;12.472;2023-04-25T02:14:12;7.05;;;1.95;;
74267;SDS011;62638;51.362;12.472;2023-04-25T02:16:37;4.05;;;1.30;;
74267;SDS011;62638;51.362;12.472;2023-04-25T02:19:04;2.65;;;1.23;;
74267;SDS011;62638;51.362;12.472;2023-04-25T02:21:30;3.20;;;1.23;;
74267;SDS011;62638;51.362;12.472;2023-04-25T02:23:55;2.30;;;1.10;;
74267;SDS011;62638;51.362;12.472;2023-04-25T02:26:21;4.05;;;1.52;;
74267;SDS011;62638;51.362;12.472;2023-04-25T02:28:46;4.03;;;1.50;;
74267;SDS011;62638;51.362;12.472;2023-04-25T02:31:11;2.87;;;1.67;;
74267;SDS011;62638;51.362;12.472;2023-04-25T02:33:36;6.23;;;2.10;;
74267;SDS011;62638;51.362;12.472;2023-04-25T02:36:02;4.67;;;2.00;;
74267;SDS011;62638;51.362;12.472;2023-04-25T02:38:28;4.57;;;1.80;;
74267;SDS011;62638;51.362;12.472;2023-04-25T02:40:53;4.10;;;2.13;;
74267;SDS011;62638;51.362;12.472;2023-04-25T02:43:18;3.43;;;2.00;;
74267;SDS011;62638;51.362;12.472;2023-04-25T02:45:44;2.93;;;1.77;;
74267;SDS011;62638;51.362;12.472;2023-04-25T02:48:09;5.97;;;2.10;;
74267;SDS011;62638;51.362;12.472;2023-04-25T02:50:34;5.68;;;2.08;;
74267;SDS011;62638;51.362;12.472;2023-04-25T02:53:00;4.43;;;1.90;;
74267;SDS011;62638;51.362;12.472;2023-04-25T02:55:25;3.13;;;1.17;;
74267;SDS011;62638;51.362;12.472;2023-04-25T02:57:51;5.95;;;1.77;;
74267;SDS011;62638;51.362;12.472;2023-04-25T03:00:16;4.07;;;1.58;;
74267;SDS011;62638;51.362;12.472;2023-04-25T03:02:41;3.60;;;1.52;;
74267;SDS011;62638;51.362;12.472;2023-04-25T03:05:07;4.33;;;2.20;;
74267;SDS011;62638;51.362;12.472;2023-04-25T03:07:32;4.28;;;1.77;;
74267;SDS011;62638;51.362;12.472;2023-04-25T03:09:57;7.37;;;1.73;;
74267;SDS011;62638;51.362;12.472;2023-04-25T03:12:22;4.17;;;1.57;;
74267;SDS011;62638;51.362;12.472;2023-04-25T03:14:48;5.67;;;1.47;;
74267;SDS011;62638;51.362;12.472;2023-04-25T03:17:13;5.37;;;2.23;;
74267;SDS011;62638;51.362;12.472;2023-04-25T03:19:38;4.03;;;1.88;;
74267;SDS011;62638;51.362;12.472;2023-04-25T03:22:04;3.67;;;2.28;;
74267;SDS011;62638;51.362;12.472;2023-04-25T03:24:29;6.30;;;2.03;;
74267;SDS011;62638;51.362;12.472;2023-04-25T03:26:54;4.97;;;1.70;;
74267;SDS011;62638;51.362;12.472;2023-04-25T03:29:19;4.90;;;2.03;;
74267;SDS011;62638;51.362;12.472;2023-04-25T03:31:49;7.15;;;2.38;;
74267;SDS011;62638;51.362;12.472;2023-04-25T03:34:14;3.85;;;2.13;;
74267;SDS011;62638;51.362;12.472;2023-04-25T03:36:40;6.82;;;2.33;;
74267;SDS011;62638;51.362;12.472;2023-04-25T03:39:05;5.60;;;2.47;;
74267;SDS011;62638;51.362;12.472;2023-04-25T03:41:31;5.50;;;2.88;;
74267;SDS011;62638;51.362;12.472;2023-04-25T03:43:56;7.93;;;1.85;;
74267;SDS011;62638;51.362;12.472;2023-04-25T03:46:21;2.63;;;2.20;;
74267;SDS011;62638;51.362;12.472;2023-04-25T03:48:46;4.27;;;1.87;;
74267;SDS011;62638;51.362;12.472;2023-04-25T03:51:12;5.30;;;2.17;;
74267;SDS011;62638;51.362;12.472;2023-04-25T03:53:37;6.83;;;2.03;;
74267;SDS011;62638;51.362;12.472;2023-04-25T03:56:02;4.83;;;2.83;;
74267;SDS011;62638;51.362;12.472;2023-04-25T03:58:28;4.47;;;1.98;;
74267;SDS011;62638;51.362;12.472;2023-04-25T04:00:53;6.13;;;1.60;;
74267;SDS011;62638;51.362;12.472;2023-04-25T04:03:18;4.50;;;2.10;;
74267;SDS011;62638;51.362;12.472;2023-04-25T04:05:43;2.83;;;1.57;;
74267;SDS011;62638;51.362;12.472;2023-04-25T04:08:10;5.05;;;1.98;;
74267;SDS011;62638;51.362;12.472;2023-04-25T04:10:35;4.80;;;1.85;;
74267;SDS011;62638;51.362;12.472;2023-04-25T04:13:00;3.70;;;1.97;;
74267;SDS011;62638;51.362;12.472;2023-04-25T04:15:26;3.67;;;1.73;;
74267;SDS011;62638;51.362;12.472;2023-04-25T04:17:51;4.50;;;1.60;;
74267;SDS011;62638;51.362;12.472;2023-04-25T04:20:16;3.27;;;1.63;;
74267;SDS011;62638;51.362;12.472;2023-04-25T04:22:41;6.33;;;1.70;;
74267;SDS011;62638;51.362;12.472;2023-04-25T04:25:07;3.67;;;1.80;;
74267;SDS011;62638;51.362;12.472;2023-04-25T04:27:32;6.60;;;2.28;;
74267;SDS011;62638;51.362;12.472;2023-04-25T04:29:58;6.07;;;2.17;;
74267;SDS011;62638;51.362;12.472;2023-04-25T04:32:23;6.40;;;2.13;;
74267;SDS011;62638;51.362;12.472;2023-04-25T04:34:48;7.87;;;2.20;;
74267;SDS011;62638;51.362;12.472;2023-04-25T04:37:14;3.92;;;2.15;;
74267;SDS011;62638;51.362;12.472;2023-04-25T04:39:39;8.98;;;2.15;;
74267;SDS011;62638;51.362;12.472;2023-04-25T04:42:05;4.78;;;1.88;;
74267;SDS011;62638;51.362;12.472;2023-04-25T04:44:31;6.90;;;2.07;;
74267;SDS011;62638;51.362;12.472;2023-04-25T04:46:57;5.22;;;2.00;;
74267;SDS011;62638;51.362;12.472;2023-04-25T04:49:23;3.63;;;1.58;;
74267;SDS011;62638;51.362;12.472;2023-04-25T04:51:48;4.73;;;1.83;;
74267;SDS011;62638;51.362;12.472;2023-04-25T04:54:14;8.60;;;2.95;;
74267;SDS011;62638;51.362;12.472;2023-04-25T04:56:40;5.40;;;2.57;;
74267;SDS011;62638;51.362;12.472;2023-04-25T04:59:05;5.93;;;2.37;;
74267;SDS011;62638;51.362;12.472;2023-04-25T05:01:30;3.40;;;1.63;;
74267;SDS011;62638;51.362;12.472;2023-04-25T05:03:56;7.35;;;2.00;;
74267;SDS011;62638;51.362;12.472;2023-04-25T05:06:25;2.83;;;1.40;;
74267;SDS011;62638;51.362;12.472;2023-04-25T05:08:52;4.43;;;1.75;;
74267;SDS011;62638;51.362;12.472;2023-04-25T05:11:18;2.63;;;1.60;;
74267;SDS011;62638;51.362;12.472;2023-04-25T05:13:43;3.47;;;1.52;;
74267;SDS011;62638;51.362;12.472;2023-04-25T05:16:09;5.05;;;2.10;;
74267;SDS011;62638;51.362;12.472;2023-04-25T05:18:34;6.67;;;2.80;;
74267;SDS011;62638;51.362;12.472;2023-04-25T05:21:00;5.63;;;2.03;;
74267;SDS011;62638;51.362;12.472;2023-04-25T05:23:25;5.60;;;2.10;;
74267;SDS011;62638;51.362;12.472;2023-04-25T05:25:52;3.13;;;1.73;;
74267;SDS011;62638;51.362;12.472;2023-04-25T05:28:18;5.07;;;3.13;;
74267;SDS011;62638;51.362;12.472;2023-04-25T05:30:43;5.05;;;2.28;;
74267;SDS011;62638;51.362;12.472;2023-04-25T05:33:08;4.83;;;2.00;;
74267;SDS011;62638;51.362;12.472;2023-04-25T05:35:33;4.17;;;1.60;;
74267;SDS011;62638;51.362;12.472;2023-04-25T05:37:59;5.80;;;2.22;;
74267;SDS011;62638;51.362;12.472;2023-04-25T05:40:24;7.43;;;2.67;;
74267;SDS011;62638;51.362;12.472;2023-04-25T05:42:50;3.95;;;2.45;;
74267;SDS011;62638;51.362;12.472;2023-04-25T05:45:15;5.00;;;2.50;;
74267;SDS011;62638;51.362;12.472;2023-04-25T05:47:42;7.05;;;2.55;;
74267;SDS011;62638;51.362;12.472;2023-04-25T05:50:07;10.17;;;2.63;;
74267;SDS011;62638;51.362;12.472;2023-04-25T05:52:33;5.30;;;2.58;;
74267;SDS011;62638;51.362;12.472;2023-04-25T05:54:58;4.40;;;1.50;;
74267;SDS011;62638;51.362;12.472;2023-04-25T05:57:24;4.80;;;2.47;;
74267;SDS011;62638;51.362;12.472;2023-04-25T05:59:51;4.50;;;2.75;;
74267;SDS011;62638;51.362;12.472;2023-04-25T06:02:17;10.00;;;2.08;;
74267;SDS011;62638;51.362;12.472;2023-04-25T06:04:46;3.60;;;1.92;;
74267;SDS011;62638;51.362;12.472;2023-04-25T06:07:12;5.13;;;1.85;;
74267;SDS011;62638;51.362;12.472;2023-04-25T06:09:37;6.15;;;2.17;;
74267;SDS011;62638;51.362;12.472;2023-04-25T06:12:04;4.03;;;1.60;;
74267;SDS011;62638;51.362;12.472;2023-04-25T06:14:30;3.65;;;2.05;;
74267;SDS011;62638;51.362;12.472;2023-04-25T06:16:55;4.83;;;2.43;;
74267;SDS011;62638;51.362;12.472;2023-04-25T06:19:20;5.53;;;2.10;;
74267;SDS011;62638;51.362;12.472;2023-04-25T06:21:46;7.37;;;2.10;;
74267;SDS011;62638;51.362;12.472;2023-04-25T06:24:11;4.60;;;2.10;;
74267;SDS011;62638;51.362;12.472;2023-04-25T06:26:36;4.93;;;2.33;;
74267;SDS011;62638;51.362;12.472;2023-04-25T06:29:02;4.73;;;1.70;;
74267;SDS011;62638;51.362;12.472;2023-04-25T06:31:27;3.95;;;2.10;;
74267;SDS011;62638;51.362;12.472;2023-04-25T06:33:53;6.32;;;2.13;;
74267;SDS011;62638;51.362;12.472;2023-04-25T06:36:20;8.98;;;2.47;;
74267;SDS011;62638;51.362;12.472;2023-04-25T06:38:49;4.28;;;1.90;;
74267;SDS011;62638;51.362;12.472;2023-04-25T06:41:18;4.40;;;1.45;;
74267;SDS011;62638;51.362;12.472;2023-04-25T06:43:43;2.58;;;1.33;;
74267;SDS011;62638;51.362;12.472;2023-04-25T06:46:09;3.03;;;1.35;;
74267;SDS011;62638;51.362;12.472;2023-04-25T06:48:34;6.03;;;1.98;;
74267;SDS011;62638;51.362;12.472;2023-04-25T06:51:00;4.22;;;2.17;;
74267;SDS011;62638;51.362;12.472;2023-04-25T06:53:25;4.87;;;1.93;;
74267;SDS011;62638;51.362;12.472;2023-04-25T06:55:50;6.68;;;1.90;;
74267;SDS011;62638;51.362;12.472;2023-04-25T06:58:16;6.63;;;2.13;;
74267;SDS011;62638;51.362;12.472;2023-04-25T07:00:41;4.13;;;1.43;;
74267;SDS011;62638;51.362;12.472;2023-04-25T07:03:06;4.68;;;1.92;;
74267;SDS011;62638;51.362;12.472;2023-04-25T07:05:32;4.70;;;1.77;;
74267;SDS011;62638;51.362;12.472;2023-04-25T07:07:57;5.90;;;2.50;;
74267;SDS011;62638;51.362;12.472;2023-04-25T07:10:22;3.80;;;1.83;;
74267;SDS011;62638;51.362;12.472;2023-04-25T07:12:47;3.90;;;1.73;;
74267;SDS011;62638;51.362;12.472;2023-04-25T07:15:13;5.37;;;1.80;;
74267;SDS011;62638;51.362;12.472;2023-04-25T07:17:38;5.57;;;2.40;;
74267;SDS011;62638;51.362;12.472;2023-04-25T07:20:04;5.25;;;1.70;;
74267;SDS011;62638;51.362;12.472;2023-04-25T07:22:30;4.18;;;1.63;;
74267;SDS011;62638;51.362;12.472;2023-04-25T07:24:56;4.43;;;1.92;;
74267;SDS011;62638;51.362;12.472;2023-04-25T07:27:21;3.40;;;1.90;;
74267;SDS011;62638;51.362;12.472;2023-04-25T07:29:46;3.47;;;1.63;;
74267;SDS011;62638;51.362;12.472;2023-04-25T07:32:11;4.73;;;2.03;;
74267;SDS011;62638;51.362;12.472;2023-04-25T07:34:38;4.88;;;1.90;;
74267;SDS011;62638;51.362;12.472;2023-04-25T07:37:04;6.25;;;1.85;;
74267;SDS011;62638;51.362;12.472;2023-04-25T07:39:29;4.63;;;2.28;;
74267;SDS011;62638;51.362;12.472;2023-04-25T07:41:55;4.30;;;2.10;;
74267;SDS011;62638;51.362;12.472;2023-04-25T07:44:21;3.58;;;1.88;;
74267;SDS011;62638;51.362;12.472;2023-04-25T07:46:46;4.90;;;1.92;;
74267;SDS011;62638;51.362;12.472;2023-04-25T07:49:11;4.17;;;2.00;;
74267;SDS011;62638;51.362;12.472;2023-04-25T07:51:37;7.60;;;2.03;;
74267;SDS011;62638;51.362;12.472;2023-04-25T07:54:02;3.37;;;1.43;;
74267;SDS011;62638;51.362;12.472;2023-04-25T07:56:27;6.77;;;2.27;;
74267;SDS011;62638;51.362;12.472;2023-04-25T07:58:53;3.50;;;1.70;;
74267;SDS011;62638;51.362;12.472;2023-04-25T08:01:18;7.70;;;1.73;;
74267;SDS011;62638;51.362;12.472;2023-04-25T08:03:45;5.38;;;2.08;;
74267;SDS011;62638;51.362;12.472;2023-04-25T08:06:10;4.57;;;1.83;;
74267;SDS011;62638;51.362;12.472;2023-04-25T08:08:36;4.07;;;1.83;;
74267;SDS011;62638;51.362;12.472;2023-04-25T08:11:01;1.10;;;0.87;;
74267;SDS011;62638;51.362;12.472;2023-04-25T08:13:26;3.97;;;1.00;;
74267;SDS011;62638;51.362;12.472;2023-04-25T08:15:52;2.53;;;1.13;;
74267;SDS011;62638;51.362;12.472;2023-04-25T08:18:17;3.87;;;1.40;;
74267;SDS011;62638;51.362;12.472;2023-04-25T08:20:43;1.77;;;0.75;;
74267;SDS011;62638;51.362;12.472;2023-04-25T08:23:08;5.30;;;0.90;;
74267;SDS011;62638;51.362;12.472;2023-04-25T08:25:33;2.00;;;1.20;;
74267;SDS011;62638;51.362;12.472;2023-04-25T08:27:58;3.13;;;0.93;;
74267;SDS011;62638;51.362;12.472;2023-04-25T08:30:24;1.92;;;0.90;;
74267;SDS011;62638;51.362;12.472;2023-04-25T08:32:49;1.67;;;0.82;;
74267;SDS011;62638;51.362;12.472;2023-04-25T08:35:15;2.50;;;1.05;;
74267;SDS011;62638;51.362;12.472;2023-04-25T08:37:42;3.55;;;0.90;;
74267;SDS011;62638;51.362;12.472;2023-04-25T08:40:07;7.30;;;1.17;;
74267;SDS011;62638;51.362;12.472;2023-04-25T08:42:39;4.90;;;1.10;;
74267;SDS011;62638;51.362;12.472;2023-04-25T08:45:06;5.22;;;1.80;;
74267;SDS011;62638;51.362;12.472;2023-04-25T08:47:33;1.92;;;0.90;;
74267;SDS011;62638;51.362;12.472;2023-04-25T08:50:03;4.35;;;0.98;;
74267;SDS011;62638;51.362;12.472;2023-04-25T08:52:32;4.63;;;1.30;;
74267;SDS011;62638;51.362;12.472;2023-04-25T08:55:01;8.38;;;1.33;;
74267;SDS011;62638;51.362;12.472;2023-04-25T08:57:27;2.55;;;1.17;;
74267;SDS011;62638;51.362;12.472;2023-04-25T08:59:54;2.38;;;1.23;;
74267;SDS011;62638;51.362;12.472;2023-04-25T09:02:20;5.50;;;0.80;;
74267;SDS011;62638;51.362;12.472;2023-04-25T09:04:47;2.40;;;0.65;;
74267;SDS011;62638;51.362;12.472;2023-04-25T09:07:12;4.10;;;1.50;;
74267;SDS011;62638;51.362;12.472;2023-04-25T09:09:40;3.83;;;1.02;;
74267;SDS011;62638;51.362;12.472;2023-04-25T09:12:05;3.53;;;1.20;;
74267;SDS011;62638;51.362;12.472;2023-04-25T09:14:31;4.40;;;1.15;;
74267;SDS011;62638;51.362;12.472;2023-04-25T09:19:23;1.70;;;0.98;;
74267;SDS011;62638;51.362;12.472;2023-04-25T09:21:54;4.32;;;1.85;;
74267;SDS011;62638;51.362;12.472;2023-04-25T09:27:06;2.28;;;0.82;;
74267;SDS011;62638;51.362;12.472;2023-04-25T09:29:37;1.88;;;0.93;;
74267;SDS011;62638;51.362;12.472;2023-04-25T09:32:10;3.72;;;1.25;;
74267;SDS011;62638;51.362;12.472;2023-04-25T09:34:44;3.20;;;1.38;;
74267;SDS011;62638;51.362;12.472;2023-04-25T09:37:22;3.97;;;1.25;;
74267;SDS011;62638;51.362;12.472;2023-04-25T09:42:15;2.08;;;0.90;;
74267;SDS011;62638;51.362;12.472;2023-04-25T09:44:42;5.03;;;1.00;;
74267;SDS011;62638;51.362;12.472;2023-04-25T09:47:10;4.07;;;1.48;;
74267;SDS011;62638;51.362;12.472;2023-04-25T09:52:04;3.05;;;1.30;;
74267;SDS011;62638;51.362;12.472;2023-04-25T09:54:29;7.07;;;2.20;;
74267;SDS011;62638;51.362;12.472;2023-04-25T09:56:54;7.40;;;1.27;;
74267;SDS011;62638;51.362;12.472;2023-04-25T09:59:20;4.80;;;1.42;;
74267;SDS011;62638;51.362;12.472;2023-04-25T10:01:47;2.97;;;1.88;;
74267;SDS011;62638;51.362;12.472;2023-04-25T10:04:15;4.68;;;1.10;;
74267;SDS011;62638;51.362;12.472;2023-04-25T10:06:49;2.50;;;1.42;;
74267;SDS011;62638;51.362;12.472;2023-04-25T10:09:17;3.38;;;1.05;;
74267;SDS011;62638;51.362;12.472;2023-04-25T10:11:46;5.43;;;1.60;;
74267;SDS011;62638;51.362;12.472;2023-04-25T10:14:13;4.15;;;1.73;;
74267;SDS011;62638;51.362;12.472;2023-04-25T10:16:39;6.72;;;1.27;;
74267;SDS011;62638;51.362;12.472;2023-04-25T10:19:06;6.30;;;2.03;;
74267;SDS011;62638;51.362;12.472;2023-04-25T10:21:32;3.42;;;1.58;;
74267;SDS011;62638;51.362;12.472;2023-04-25T10:23:59;5.38;;;1.58;;
74267;SDS011;62638;51.362;12.472;2023-04-25T10:26:25;5.43;;;1.48;;
74267;SDS011;62638;51.362;12.472;2023-04-25T10:28:57;3.63;;;1.30;;
74267;SDS011;62638;51.362;12.472;2023-04-25T10:31:24;8.75;;;1.75;;
74267;SDS011;62638;51.362;12.472;2023-04-25T10:33:49;6.57;;;1.95;;
74267;SDS011;62638;51.362;12.472;2023-04-25T10:36:18;6.40;;;2.15;;
74267;SDS011;62638;51.362;12.472;2023-04-25T10:38:44;3.03;;;1.85;;
74267;SDS011;62638;51.362;12.472;2023-04-25T10:41:11;5.85;;;2.05;;
74267;SDS011;62638;51.362;12.472;2023-04-25T10:43:39;7.47;;;2.45;;
74267;SDS011;62638;51.362;12.472;2023-04-25T10:46:15;6.05;;;1.90;;
74267;SDS011;62638;51.362;12.472;2023-04-25T10:48:46;3.83;;;2.25;;
74267;SDS011;62638;51.362;12.472;2023-04-25T10:54:10;5.22;;;2.20;;
74267;SDS011;62638;51.362;12.472;2023-04-25T10:56:37;7.40;;;2.53;;
74267;SDS011;62638;51.362;12.472;2023-04-25T10:59:15;4.28;;;1.90;;
74267;SDS011;62638;51.362;12.472;2023-04-25T11:01:44;4.40;;;2.10;;
74267;SDS011;62638;51.362;12.472;2023-04-25T11:04:23;4.60;;;2.42;;
74267;SDS011;62638;51.362;12.472;2023-04-25T11:09:30;2.78;;;1.83;;
74267;SDS011;62638;51.362;12.472;2023-04-25T11:11:58;5.10;;;1.98;;
74267;SDS011;62638;51.362;12.472;2023-04-25T11:14:24;6.68;;;2.17;;
74267;SDS011;62638;51.362;12.472;2023-04-25T11:16:53;8.32;;;2.10;;
74267;SDS011;62638;51.362;12.472;2023-04-25T11:19:20;5.15;;;2.13;;
74267;SDS011;62638;51.362;12.472;2023-04-25T11:21:46;6.97;;;2.17;;
74267;SDS011;62638;51.362;12.472;2023-04-25T11:24:11;10.73;;;3.00;;
74267;SDS011;62638;51.362;12.472;2023-04-25T11:26:36;8.82;;;3.53;;
74267;SDS011;62638;51.362;12.472;2023-04-25T11:29:02;6.45;;;3.13;;
74267;SDS011;62638;51.362;12.472;2023-04-25T11:31:28;8.50;;;2.78;;
74267;SDS011;62638;51.362;12.472;2023-04-25T11:33:56;7.13;;;1.98;;
74267;SDS011;62638;51.362;12.472;2023-04-25T11:36:22;5.90;;;1.77;;
74267;SDS011;62638;51.362;12.472;2023-04-25T11:38:49;8.45;;;2.00;;
74267;SDS011;62638;51.362;12.472;2023-04-25T11:41:15;10.40;;;2.30;;
74267;SDS011;62638;51.362;12.472;2023-04-25T11:43:42;5.38;;;2.03;;
74267;SDS011;62638;51.362;12.472;2023-04-25T11:46:08;9.52;;;2.15;;
74267;SDS011;62638;51.362;12.472;2023-04-25T11:48:38;6.72;;;2.10;;
74267;SDS011;62638;51.362;12.472;2023-04-25T11:51:04;6.00;;;1.90;;
74267;SDS011;62638;51.362;12.472;2023-04-25T11:53:29;3.88;;;2.15;;
74267;SDS011;62638;51.362;12.472;2023-04-25T11:55:54;3.83;;;1.60;;
74267;SDS011;62638;51.362;12.472;2023-04-25T11:58:20;3.70;;;1.60;;
74267;SDS011;62638;51.362;12.472;2023-04-25T12:00:46;5.97;;;1.23;;
74267;SDS011;62638;51.362;12.472;2023-04-25T12:03:11;3.17;;;1.52;;
74267;SDS011;62638;51.362;12.472;2023-04-25T12:05:36;4.70;;;1.40;;
74267;SDS011;62638;51.362;12.472;2023-04-25T12:08:09;4.50;;;1.17;;
74267;SDS011;62638;51.362;12.472;2023-04-25T12:10:36;3.85;;;1.38;;
74267;SDS011;62638;51.362;12.472;2023-04-25T12:15:42;5.00;;;0.98;;
74267;SDS011;62638;51.362;12.472;2023-04-25T12:18:07;1.40;;;0.70;;
74267;SDS011;62638;51.362;12.472;2023-04-25T12:20:33;3.50;;;1.80;;
74267;SDS011;62638;51.362;12.472;2023-04-25T12:22:58;1.90;;;1.30;;
74267;SDS011;62638;51.362;12.472;2023-04-25T12:25:40;4.77;;;0.90;;
74267;SDS011;62638;51.362;12.472;2023-04-25T12:33:22;2.20;;;0.90;;
74267;SDS011;62638;51.362;12.472;2023-04-25T12:35:48;2.72;;;1.10;;
74267;SDS011;62638;51.362;12.472;2023-04-25T12:38:20;2.10;;;1.00;;
74267;SDS011;62638;51.362;12.472;2023-04-25T12:40:49;4.47;;;1.17;;
74267;SDS011;62638;51.362;12.472;2023-04-25T12:43:14;3.38;;;0.93;;
74267;SDS011;62638;51.362;12.472;2023-04-25T12:45:40;3.47;;;1.43;;
74267;SDS011;62638;51.362;12.472;2023-04-25T12:48:05;3.10;;;0.90;;
74267;SDS011;62638;51.362;12.472;2023-04-25T12:50:30;1.73;;;0.80;;
74267;SDS011;62638;51.362;12.472;2023-04-25T12:52:56;4.07;;;0.93;;
74267;SDS011;62638;51.362;12.472;2023-04-25T12:55:22;1.87;;;0.80;;
74267;SDS011;62638;51.362;12.472;2023-04-25T12:57:47;3.05;;;1.20;;
74267;SDS011;62638;51.362;12.472;2023-04-25T13:00:13;7.67;;;1.70;;
74267;SDS011;62638;51.362;12.472;2023-04-25T13:02:39;3.38;;;1.20;;
74267;SDS011;62638;51.362;12.472;2023-04-25T13:05:05;2.10;;;0.90;;
74267;SDS011;62638;51.362;12.472;2023-04-25T13:07:31;2.78;;;1.00;;
74267;SDS011;62638;51.362;12.472;2023-04-25T13:09:56;1.33;;;0.70;;
74267;SDS011;62638;51.362;12.472;2023-04-25T13:12:21;1.58;;;0.60;;
74267;SDS011;62638;51.362;12.472;2023-04-25T13:14:47;2.25;;;0.75;;
74267;SDS011;62638;51.362;12.472;2023-04-25T13:17:12;2.00;;;0.90;;
74267;SDS011;62638;51.362;12.472;2023-04-25T13:19:37;1.63;;;0.50;;
74267;SDS011;62638;51.362;12.472;2023-04-25T13:22:03;0.95;;;0.38;;
74267;SDS011;62638;51.362;12.472;2023-04-25T13:24:29;1.63;;;0.30;;
74267;SDS011;62638;51.362;12.472;2023-04-25T13:26:54;4.93;;;0.82;;
74267;SDS011;62638;51.362;12.472;2023-04-25T13:29:20;1.33;;;0.70;;
74267;SDS011;62638;51.362;12.472;2023-04-25T13:31:45;2.53;;;0.40;;
74267;SDS011;62638;51.362;12.472;2023-04-25T13:34:10;4.60;;;0.67;;
74267;SDS011;62638;51.362;12.472;2023-04-25T13:36:37;2.17;;;0.80;;
74267;SDS011;62638;51.362;12.472;2023-04-25T13:39:03;2.05;;;0.70;;
74267;SDS011;62638;51.362;12.472;2023-04-25T13:41:29;1.85;;;0.80;;
74267;SDS011;62638;51.362;12.472;2023-04-25T13:43:55;1.95;;;0.40;;
74267;SDS011;62638;51.362;12.472;2023-04-25T13:46:20;4.07;;;0.70;;
74267;SDS011;62638;51.362;12.472;2023-04-25T13:48:45;1.38;;;0.57;;
74267;SDS011;62638;51.362;12.472;2023-04-25T13:51:13;2.00;;;0.85;;
74267;SDS011;62638;51.362;12.472;2023-04-25T13:53:40;2.45;;;1.30;;
74267;SDS011;62638;51.362;12.472;2023-04-25T13:56:05;2.45;;;0.82;;
74267;SDS011;62638;51.362;12.472;2023-04-25T13:58:31;1.95;;;0.90;;
74267;SDS011;62638;51.362;12.472;2023-04-25T14:00:57;5.85;;;1.00;;
74267;SDS011;62638;51.362;12.472;2023-04-25T14:03:23;4.13;;;0.90;;
74267;SDS011;62638;51.362;12.472;2023-04-25T14:05:48;4.50;;;0.80;;
74267;SDS011;62638;51.362;12.472;2023-04-25T14:08:13;2.80;;;0.70;;
74267;SDS011;62638;51.362;12.472;2023-04-25T14:10:38;1.93;;;0.57;;
74267;SDS011;62638;51.362;12.472;2023-04-25T14:13:04;5.00;;;0.80;;
74267;SDS011;62638;51.362;12.472;2023-04-25T14:15:31;0.77;;;0.70;;
74267;SDS011;62638;51.362;12.472;2023-04-25T14:17:56;7.13;;;0.70;;
74267;SDS011;62638;51.362;12.472;2023-04-25T14:20:22;2.78;;;0.77;;
74267;SDS011;62638;51.362;12.472;2023-04-25T14:22:48;2.95;;;0.88;;
74267;SDS011;62638;51.362;12.472;2023-04-25T14:25:14;1.60;;;0.50;;
74267;SDS011;62638;51.362;12.472;2023-04-25T14:27:39;1.13;;;0.55;;
74267;SDS011;62638;51.362;12.472;2023-04-25T14:30:05;4.18;;;1.70;;
74267;SDS011;62638;51.362;12.472;2023-04-25T14:32:31;1.40;;;0.77;;
74267;SDS011;62638;51.362;12.472;2023-04-25T14:34:57;1.80;;;0.60;;
74267;SDS011;62638;51.362;12.472;2023-04-25T14:37:22;1.27;;;0.50;;
74267;SDS011;62638;51.362;12.472;2023-04-25T14:39:47;1.55;;;0.75;;
74267;SDS011;62638;51.362;12.472;2023-04-25T14:42:13;1.30;;;0.73;;
74267;SDS011;62638;51.362;12.472;2023-04-25T14:44:38;2.70;;;0.75;;
74267;SDS011;62638;51.362;12.472;2023-04-25T14:47:03;2.03;;;0.73;;
74267;SDS011;62638;51.362;12.472;2023-04-25T14:49:28;2.65;;;0.80;;